sensor_id;sensor_type;location;lat;lon;timestamp;pressure;altitude;pressure_sealevel;temperature;humidity
46756;BME280;32506;52.826;-1.192;2023-01-29T00:01:40;102362.16;;;6.83;68.03
46756;BME280;32506;52.826;-1.192;2023-01-29T00:04:05;102360.34;;;6.84;67.61
46756;BME280;32506;52.826;-1.192;2023-01-29T00:06:31;102360.34;;;6.84;67.43
46756;BME280;32506;52.826;-1.192;2023-01-29T00:08:56;102363.16;;;6.82;67.89
46756;BME280;32506;52.826;-1.192;2023-01-29T00:11:22;102360.50;;;6.82;67.70
46756;BME280;32506;52.826;-1.192;2023-01-29T00:13:50;102361.47;;;6.81;67.33
46756;BME280;32506;52.826;-1.192;2023-01-29T00:16:15;102361.47;;;6.81;67.97
46756;BME280;32506;52.826;-1.192;2023-01-29T00:18:41;102356.31;;;6.80;67.50
46756;BME280;32506;52.826;-1.192;2023-01-29T00:21:14;102355.44;;;6.79;67.84
46756;BME280;32506;52.826;-1.192;2023-01-29T00:23:41;102366.09;;;6.79;67.92
46756;BME280;32506;52.826;-1.192;2023-01-29T00:26:07;102377.56;;;6.80;68.21
46756;BME280;32506;52.826;-1.192;2023-01-29T00:28:33;102379.38;;;6.79;67.41
46756;BME280;32506;52.826;-1.192;2023-01-29T00:31:06;102372.41;;;6.78;67.54
46756;BME280;32506;52.826;-1.192;2023-01-29T00:33:31;102375.19;;;6.77;67.26
46756;BME280;32506;52.826;-1.192;2023-01-29T00:35:57;102376.19;;;6.76;67.42
46756;BME280;32506;52.826;-1.192;2023-01-29T00:38:22;102380.66;;;6.75;67.50
46756;BME280;32506;52.826;-1.192;2023-01-29T00:40:48;102365.66;;;6.74;67.65
46756;BME280;32506;52.826;-1.192;2023-01-29T00:43:31;102376.31;;;6.74;67.76
46756;BME280;32506;52.826;-1.192;2023-01-29T00:46:15;102367.50;;;6.74;67.66
46756;BME280;32506;52.826;-1.192;2023-01-29T00:48:41;102368.47;;;6.72;67.33
46756;BME280;32506;52.826;-1.192;2023-01-29T00:51:06;102359.69;;;6.72;67.65
46756;BME280;32506;52.826;-1.192;2023-01-29T00:53:32;102358.00;;;6.71;67.98
46756;BME280;32506;52.826;-1.192;2023-01-29T00:55:57;102356.19;;;6.71;67.28
46756;BME280;32506;52.826;-1.192;2023-01-29T00:58:23;102350.19;;;6.69;67.40
46756;BME280;32506;52.826;-1.192;2023-01-29T01:01:01;102354.50;;;6.70;67.47
46756;BME280;32506;52.826;-1.192;2023-01-29T01:03:28;102356.47;;;6.68;67.60
46756;BME280;32506;52.826;-1.192;2023-01-29T01:06:07;102348.50;;;6.68;68.25
46756;BME280;32506;52.826;-1.192;2023-01-29T01:08:33;102353.13;;;6.66;67.47
46756;BME280;32506;52.826;-1.192;2023-01-29T01:11:37;102342.50;;;6.66;67.86
46756;BME280;32506;52.826;-1.192;2023-01-29T01:14:02;102335.50;;;6.65;67.56
46756;BME280;32506;52.826;-1.192;2023-01-29T01:16:27;102340.81;;;6.65;67.84
46756;BME280;32506;52.826;-1.192;2023-01-29T01:18:53;102340.81;;;6.65;67.66
46756;BME280;32506;52.826;-1.192;2023-01-29T01:21:18;102336.47;;;6.64;68.05
46756;BME280;32506;52.826;-1.192;2023-01-29T01:23:44;102337.44;;;6.63;67.91
46756;BME280;32506;52.826;-1.192;2023-01-29T01:26:09;102322.50;;;6.62;67.41
46756;BME280;32506;52.826;-1.192;2023-01-29T01:28:35;102319.84;;;6.62;67.83
46756;BME280;32506;52.826;-1.192;2023-01-29T01:31:08;102318.03;;;6.63;67.62
46756;BME280;32506;52.826;-1.192;2023-01-29T01:33:33;102311.88;;;6.62;67.86
46756;BME280;32506;52.826;-1.192;2023-01-29T01:36:00;102313.00;;;6.60;67.86
46756;BME280;32506;52.826;-1.192;2023-01-29T01:38:26;102313.97;;;6.59;67.38
46756;BME280;32506;52.826;-1.192;2023-01-29T01:40:51;102309.66;;;6.58;68.33
46756;BME280;32506;52.826;-1.192;2023-01-29T01:43:17;102310.63;;;6.57;67.54
46756;BME280;32506;52.826;-1.192;2023-01-29T01:45:42;102306.16;;;6.57;68.08
46756;BME280;32506;52.826;-1.192;2023-01-29T01:48:20;102293.03;;;6.55;67.50
46756;BME280;32506;52.826;-1.192;2023-01-29T01:51:01;102293.03;;;6.55;67.55
46756;BME280;32506;52.826;-1.192;2023-01-29T01:53:33;102294.97;;;6.53;67.80
46756;BME280;32506;52.826;-1.192;2023-01-29T01:56:06;102283.38;;;6.54;68.03
46756;BME280;32506;52.826;-1.192;2023-01-29T01:58:59;102283.53;;;6.53;67.53
46756;BME280;32506;52.826;-1.192;2023-01-29T02:01:24;102276.53;;;6.52;67.51
46756;BME280;32506;52.826;-1.192;2023-01-29T02:04:02;102279.19;;;6.52;67.36
46756;BME280;32506;52.826;-1.192;2023-01-29T02:06:47;102267.72;;;6.51;68.02
46756;BME280;32506;52.826;-1.192;2023-01-29T02:09:38;102265.19;;;6.50;67.66
46756;BME280;32506;52.826;-1.192;2023-01-29T02:12:08;102263.53;;;6.49;67.58
46756;BME280;32506;52.826;-1.192;2023-01-29T02:14:36;102269.69;;;6.49;67.18
46756;BME280;32506;52.826;-1.192;2023-01-29T02:17:07;102268.00;;;6.48;67.81
46756;BME280;32506;52.826;-1.192;2023-01-29T02:19:37;102258.38;;;6.47;68.26
46756;BME280;32506;52.826;-1.192;2023-01-29T02:31:06;102248.88;;;6.45;68.05
46756;BME280;32506;52.826;-1.192;2023-01-29T02:33:59;102250.00;;;6.42;67.62
46756;BME280;32506;52.826;-1.192;2023-01-29T02:36:32;102250.16;;;6.41;68.03
46756;BME280;32506;52.826;-1.192;2023-01-29T02:39:22;102245.81;;;6.40;67.33
46756;BME280;32506;52.826;-1.192;2023-01-29T02:42:10;102237.00;;;6.39;68.07
46756;BME280;32506;52.826;-1.192;2023-01-29T02:44:41;102238.97;;;6.37;67.99
46756;BME280;32506;52.826;-1.192;2023-01-29T02:47:18;102236.47;;;6.35;67.71
46756;BME280;32506;52.826;-1.192;2023-01-29T02:52:18;102221.66;;;6.33;67.51
46756;BME280;32506;52.826;-1.192;2023-01-29T02:57:20;102214.81;;;6.30;67.76
46756;BME280;32506;52.826;-1.192;2023-01-29T03:02:36;102214.09;;;6.28;67.81
46756;BME280;32506;52.826;-1.192;2023-01-29T03:05:07;102208.78;;;6.28;67.47
46756;BME280;32506;52.826;-1.192;2023-01-29T03:07:40;102206.28;;;6.27;67.32
46756;BME280;32506;52.826;-1.192;2023-01-29T03:12:42;102217.88;;;6.26;67.49
46756;BME280;32506;52.826;-1.192;2023-01-29T03:15:15;102211.91;;;6.24;67.50
46756;BME280;32506;52.826;-1.192;2023-01-29T03:17:59;102218.19;;;6.22;67.63
46756;BME280;32506;52.826;-1.192;2023-01-29T03:20:31;102216.50;;;6.21;67.22
46756;BME280;32506;52.826;-1.192;2023-01-29T03:23:06;102221.94;;;6.20;67.38
46756;BME280;32506;52.826;-1.192;2023-01-29T03:25:34;102208.69;;;6.20;67.32
46756;BME280;32506;52.826;-1.192;2023-01-29T03:28:19;102206.19;;;6.18;68.00
46756;BME280;32506;52.826;-1.192;2023-01-29T03:31:07;102203.66;;;6.17;67.49
46756;BME280;32506;52.826;-1.192;2023-01-29T03:33:58;102198.50;;;6.15;67.80
46756;BME280;32506;52.826;-1.192;2023-01-29T03:39:08;102189.84;;;6.13;68.13
46756;BME280;32506;52.826;-1.192;2023-01-29T03:41:39;102187.31;;;6.12;67.75
46756;BME280;32506;52.826;-1.192;2023-01-29T03:46:41;102192.63;;;6.12;67.50
46756;BME280;32506;52.826;-1.192;2023-01-29T03:49:52;102192.63;;;6.12;67.70
46756;BME280;32506;52.826;-1.192;2023-01-29T03:52:18;102189.31;;;6.10;67.95
46756;BME280;32506;52.826;-1.192;2023-01-29T03:58:04;102183.13;;;6.09;67.50
46756;BME280;32506;52.826;-1.192;2023-01-29T04:00:44;102183.13;;;6.09;68.03
46756;BME280;32506;52.826;-1.192;2023-01-29T04:06:04;102182.72;;;6.04;67.50
46756;BME280;32506;52.826;-1.192;2023-01-29T04:08:37;102177.41;;;6.04;67.83
46756;BME280;32506;52.826;-1.192;2023-01-29T04:11:10;102185.38;;;6.04;67.81
46756;BME280;32506;52.826;-1.192;2023-01-29T04:13:37;102183.72;;;6.03;68.07
46756;BME280;32506;52.826;-1.192;2023-01-29T04:16:05;102172.13;;;6.04;68.17
46756;BME280;32506;52.826;-1.192;2023-01-29T04:18:32;102173.94;;;6.03;67.90
46756;BME280;32506;52.826;-1.192;2023-01-29T04:20:58;102166.13;;;6.02;67.76
46756;BME280;32506;52.826;-1.192;2023-01-29T04:23:26;102158.16;;;6.02;67.93
46756;BME280;32506;52.826;-1.192;2023-01-29T04:26:26;102141.25;;;6.03;67.77
46756;BME280;32506;52.826;-1.192;2023-01-29T04:31:28;102148.53;;;6.01;67.69
46756;BME280;32506;52.826;-1.192;2023-01-29T04:36:40;102147.69;;;6.00;67.52
46756;BME280;32506;52.826;-1.192;2023-01-29T04:39:19;102139.03;;;5.98;67.73
46756;BME280;32506;52.826;-1.192;2023-01-29T04:55:05;102133.84;;;5.97;67.84
46756;BME280;32506;52.826;-1.192;2023-01-29T04:57:41;102124.19;;;5.96;68.01
46756;BME280;32506;52.826;-1.192;2023-01-29T05:00:20;102111.06;;;5.94;67.89
46756;BME280;32506;52.826;-1.192;2023-01-29T05:02:48;102101.28;;;5.95;67.88
46756;BME280;32506;52.826;-1.192;2023-01-29T05:05:15;102102.28;;;5.94;67.59
46756;BME280;32506;52.826;-1.192;2023-01-29T05:07:43;102098.63;;;5.95;68.27
46756;BME280;32506;52.826;-1.192;2023-01-29T05:10:12;102102.28;;;5.94;67.85
46756;BME280;32506;52.826;-1.192;2023-01-29T05:12:39;102095.16;;;5.94;68.00
46756;BME280;32506;52.826;-1.192;2023-01-29T05:15:11;102090.00;;;5.93;67.93
46756;BME280;32506;52.826;-1.192;2023-01-29T05:17:38;102082.84;;;5.93;67.89
46756;BME280;32506;52.826;-1.192;2023-01-29T05:20:05;102082.03;;;5.93;67.83
46756;BME280;32506;52.826;-1.192;2023-01-29T05:22:31;102087.34;;;5.93;68.19
46756;BME280;32506;52.826;-1.192;2023-01-29T05:24:57;102075.88;;;5.92;67.98
46756;BME280;32506;52.826;-1.192;2023-01-29T05:27:30;102078.53;;;5.92;68.16
46756;BME280;32506;52.826;-1.192;2023-01-29T05:30:14;102062.75;;;5.91;67.72
46756;BME280;32506;52.826;-1.192;2023-01-29T05:32:40;102057.44;;;5.91;68.14
46756;BME280;32506;52.826;-1.192;2023-01-29T05:35:05;102049.63;;;5.89;67.58
46756;BME280;32506;52.826;-1.192;2023-01-29T05:37:31;102054.13;;;5.88;67.75
46756;BME280;32506;52.826;-1.192;2023-01-29T05:39:56;102052.44;;;5.87;68.06
46756;BME280;32506;52.826;-1.192;2023-01-29T05:42:22;102044.47;;;5.87;67.68
46756;BME280;32506;52.826;-1.192;2023-01-29T05:44:48;102047.13;;;5.87;67.64
46756;BME280;32506;52.826;-1.192;2023-01-29T05:47:13;102041.00;;;5.87;67.68
46756;BME280;32506;52.826;-1.192;2023-01-29T05:49:42;102041.97;;;5.86;67.94
46756;BME280;32506;52.826;-1.192;2023-01-29T05:52:08;102032.19;;;5.86;67.87
46756;BME280;32506;52.826;-1.192;2023-01-29T05:54:33;102024.38;;;5.85;68.14
46756;BME280;32506;52.826;-1.192;2023-01-29T05:56:58;102034.16;;;5.84;67.91
46756;BME280;32506;52.826;-1.192;2023-01-29T05:59:24;102030.66;;;5.84;68.23
46756;BME280;32506;52.826;-1.192;2023-01-29T06:01:49;102031.50;;;5.84;68.08
46756;BME280;32506;52.826;-1.192;2023-01-29T06:04:15;102029.81;;;5.83;67.93
46756;BME280;32506;52.826;-1.192;2023-01-29T06:06:40;102029.81;;;5.83;67.98
46756;BME280;32506;52.826;-1.192;2023-01-29T06:09:06;102033.44;;;5.82;67.89
46756;BME280;32506;52.826;-1.192;2023-01-29T06:11:31;102034.44;;;5.81;67.77
46756;BME280;32506;52.826;-1.192;2023-01-29T06:13:56;102029.13;;;5.81;67.68
46756;BME280;32506;52.826;-1.192;2023-01-29T06:16:23;102027.47;;;5.80;67.98
46756;BME280;32506;52.826;-1.192;2023-01-29T06:18:48;102023.81;;;5.81;68.25
46756;BME280;32506;52.826;-1.192;2023-01-29T06:21:14;102023.97;;;5.80;68.24
46756;BME280;32506;52.826;-1.192;2023-01-29T06:23:39;102015.03;;;5.81;68.48
46756;BME280;32506;52.826;-1.192;2023-01-29T06:26:10;102010.69;;;5.80;67.77
46756;BME280;32506;52.826;-1.192;2023-01-29T06:28:36;102013.34;;;5.80;68.07
46756;BME280;32506;52.826;-1.192;2023-01-29T06:31:03;102015.19;;;5.79;68.18
46756;BME280;32506;52.826;-1.192;2023-01-29T06:33:28;102016.00;;;5.80;68.41
46756;BME280;32506;52.826;-1.192;2023-01-29T06:35:56;102007.22;;;5.79;68.31
46756;BME280;32506;52.826;-1.192;2023-01-29T06:38:22;102009.03;;;5.79;67.92
46756;BME280;32506;52.826;-1.192;2023-01-29T06:40:48;102009.03;;;5.79;68.06
46756;BME280;32506;52.826;-1.192;2023-01-29T06:43:13;102011.69;;;5.79;68.17
46756;BME280;32506;52.826;-1.192;2023-01-29T06:48:13;102005.69;;;5.77;67.97
46756;BME280;32506;52.826;-1.192;2023-01-29T06:50:38;102002.06;;;5.78;68.47
46756;BME280;32506;52.826;-1.192;2023-01-29T06:53:04;102005.53;;;5.78;68.13
46756;BME280;32506;52.826;-1.192;2023-01-29T06:55:29;102005.69;;;5.77;68.08
46756;BME280;32506;52.826;-1.192;2023-01-29T06:57:55;102013.50;;;5.78;68.74
46756;BME280;32506;52.826;-1.192;2023-01-29T07:00:20;102005.53;;;5.78;68.29
46756;BME280;32506;52.826;-1.192;2023-01-29T07:02:49;101997.72;;;5.77;68.39
46756;BME280;32506;52.826;-1.192;2023-01-29T07:05:14;101995.91;;;5.77;68.06
46756;BME280;32506;52.826;-1.192;2023-01-29T07:07:40;102001.22;;;5.77;67.93
46756;BME280;32506;52.826;-1.192;2023-01-29T07:10:05;101995.09;;;5.77;68.39
46756;BME280;32506;52.826;-1.192;2023-01-29T07:12:31;101995.09;;;5.77;68.28
46756;BME280;32506;52.826;-1.192;2023-01-29T07:14:57;101988.94;;;5.76;68.35
46756;BME280;32506;52.826;-1.192;2023-01-29T07:17:22;102000.38;;;5.77;68.36
46756;BME280;32506;52.826;-1.192;2023-01-29T07:19:48;102001.22;;;5.77;68.45
46756;BME280;32506;52.826;-1.192;2023-01-29T07:22:13;101990.59;;;5.77;67.87
46756;BME280;32506;52.826;-1.192;2023-01-29T07:24:40;101992.44;;;5.77;68.08
46756;BME280;32506;52.826;-1.192;2023-01-29T07:27:06;101989.78;;;5.77;68.71
46756;BME280;32506;52.826;-1.192;2023-01-29T07:29:31;101986.31;;;5.76;68.40
46756;BME280;32506;52.826;-1.192;2023-01-29T07:31:57;101989.63;;;5.78;68.50
46756;BME280;32506;52.826;-1.192;2023-01-29T07:34:22;101979.16;;;5.77;68.44
46756;BME280;32506;52.826;-1.192;2023-01-29T07:36:47;101966.72;;;5.77;68.16
46756;BME280;32506;52.826;-1.192;2023-01-29T07:39:13;101976.50;;;5.77;68.35
46756;BME280;32506;52.826;-1.192;2023-01-29T07:41:39;101973.03;;;5.76;68.30
46756;BME280;32506;52.826;-1.192;2023-01-29T07:44:04;101979.16;;;5.77;68.78
46756;BME280;32506;52.826;-1.192;2023-01-29T07:46:30;101975.69;;;5.76;68.30
46756;BME280;32506;52.826;-1.192;2023-01-29T07:48:56;101985.44;;;5.76;68.60
46756;BME280;32506;52.826;-1.192;2023-01-29T07:51:22;101992.44;;;5.77;68.47
46756;BME280;32506;52.826;-1.192;2023-01-29T07:53:48;101983.66;;;5.76;68.39
46756;BME280;32506;52.826;-1.192;2023-01-29T07:56:13;101985.44;;;5.76;68.45
46756;BME280;32506;52.826;-1.192;2023-01-29T07:58:39;101981.81;;;5.77;68.30
46756;BME280;32506;52.826;-1.192;2023-01-29T08:01:05;101988.09;;;5.76;68.33
46756;BME280;32506;52.826;-1.192;2023-01-29T08:03:34;101990.75;;;5.76;68.36
46756;BME280;32506;52.826;-1.192;2023-01-29T08:06:01;101996.91;;;5.76;68.56
46756;BME280;32506;52.826;-1.192;2023-01-29T08:08:26;101995.22;;;5.75;68.44
46756;BME280;32506;52.826;-1.192;2023-01-29T08:10:52;101994.25;;;5.76;68.81
46756;BME280;32506;52.826;-1.192;2023-01-29T08:13:17;101991.59;;;5.76;68.16
46756;BME280;32506;52.826;-1.192;2023-01-29T08:15:43;101983.66;;;5.76;68.27
46756;BME280;32506;52.826;-1.192;2023-01-29T08:18:12;101984.47;;;5.77;68.81
46756;BME280;32506;52.826;-1.192;2023-01-29T08:20:37;101980.00;;;5.77;68.45
46756;BME280;32506;52.826;-1.192;2023-01-29T08:23:05;101985.28;;;5.77;68.11
46756;BME280;32506;52.826;-1.192;2023-01-29T08:25:31;101988.94;;;5.76;68.08
46756;BME280;32506;52.826;-1.192;2023-01-29T08:27:58;101992.44;;;5.77;68.35
46756;BME280;32506;52.826;-1.192;2023-01-29T08:30:32;101988.81;;;5.78;68.39
46756;BME280;32506;52.826;-1.192;2023-01-29T08:32:58;101986.97;;;5.78;68.29
46756;BME280;32506;52.826;-1.192;2023-01-29T08:35:24;101986.97;;;5.78;68.86
46756;BME280;32506;52.826;-1.192;2023-01-29T08:38:00;101979.00;;;5.78;68.67
46756;BME280;32506;52.826;-1.192;2023-01-29T08:40:28;101981.66;;;5.78;68.59
46756;BME280;32506;52.826;-1.192;2023-01-29T08:43:04;101984.16;;;5.80;68.21
46756;BME280;32506;52.826;-1.192;2023-01-29T08:45:32;101985.16;;;5.79;68.09
46756;BME280;32506;52.826;-1.192;2023-01-29T08:47:58;101983.34;;;5.79;68.55
46756;BME280;32506;52.826;-1.192;2023-01-29T08:50:24;101981.50;;;5.80;68.54
46756;BME280;32506;52.826;-1.192;2023-01-29T08:52:49;101975.38;;;5.79;68.76
46756;BME280;32506;52.826;-1.192;2023-01-29T08:55:15;101972.56;;;5.81;68.38
46756;BME280;32506;52.826;-1.192;2023-01-29T08:57:40;101979.72;;;5.80;68.30
46756;BME280;32506;52.826;-1.192;2023-01-29T09:00:07;101977.72;;;5.82;68.53
46756;BME280;32506;52.826;-1.192;2023-01-29T09:02:33;101984.72;;;5.83;68.34
46756;BME280;32506;52.826;-1.192;2023-01-29T09:04:59;101988.34;;;5.82;68.67
46756;BME280;32506;52.826;-1.192;2023-01-29T09:07:24;101990.03;;;5.83;68.67
46756;BME280;32506;52.826;-1.192;2023-01-29T09:09:49;101982.88;;;5.84;68.47
46756;BME280;32506;52.826;-1.192;2023-01-29T09:12:15;101979.25;;;5.85;68.63
46756;BME280;32506;52.826;-1.192;2023-01-29T09:14:40;101979.09;;;5.86;68.44
46756;BME280;32506;52.826;-1.192;2023-01-29T09:17:06;101976.47;;;5.86;68.19
46756;BME280;32506;52.826;-1.192;2023-01-29T09:19:31;101970.16;;;5.87;68.29
46756;BME280;32506;52.826;-1.192;2023-01-29T09:21:57;101974.34;;;5.90;68.19
46756;BME280;32506;52.826;-1.192;2023-01-29T09:24:22;101977.56;;;5.94;68.19
46756;BME280;32506;52.826;-1.192;2023-01-29T09:26:48;101971.00;;;5.98;68.52
46756;BME280;32506;52.826;-1.192;2023-01-29T09:29:13;101969.88;;;6.00;68.10
46756;BME280;32506;52.826;-1.192;2023-01-29T09:31:39;101968.59;;;6.04;68.60
46756;BME280;32506;52.826;-1.192;2023-01-29T09:34:04;101961.00;;;6.10;68.44
46756;BME280;32506;52.826;-1.192;2023-01-29T09:36:30;101955.25;;;6.14;68.86
46756;BME280;32506;52.826;-1.192;2023-01-29T09:38:55;101953.13;;;6.18;68.96
46756;BME280;32506;52.826;-1.192;2023-01-29T09:41:49;101956.03;;;6.25;68.51
46756;BME280;32506;52.826;-1.192;2023-01-29T09:47:23;101952.97;;;6.37;69.51
46756;BME280;32506;52.826;-1.192;2023-01-29T09:49:59;101941.59;;;6.45;69.37
46756;BME280;32506;52.826;-1.192;2023-01-29T09:52:30;101932.03;;;6.52;68.82
46756;BME280;32506;52.826;-1.192;2023-01-29T09:57:45;101932.69;;;6.72;70.58
46756;BME280;32506;52.826;-1.192;2023-01-29T10:00:15;101925.78;;;6.80;70.00
46756;BME280;32506;52.826;-1.192;2023-01-29T10:13:28;101927.75;;;7.30;70.73
46756;BME280;32506;52.826;-1.192;2023-01-29T10:16:31;101926.66;;;7.41;70.35
46756;BME280;32506;52.826;-1.192;2023-01-29T10:26:58;101911.81;;;7.73;70.20
46756;BME280;32506;52.826;-1.192;2023-01-29T10:29:26;101900.69;;;7.78;69.95
46756;BME280;32506;52.826;-1.192;2023-01-29T10:31:55;101901.03;;;7.83;69.75
46756;BME280;32506;52.826;-1.192;2023-01-29T10:36:50;101907.91;;;7.94;69.90
46756;BME280;32506;52.826;-1.192;2023-01-29T10:39:23;101899.41;;;7.98;69.78
46756;BME280;32506;52.826;-1.192;2023-01-29T10:42:16;101899.59;;;8.05;69.30
46756;BME280;32506;52.826;-1.192;2023-01-29T10:51:02;101893.28;;;8.22;69.32
46756;BME280;32506;52.826;-1.192;2023-01-29T10:58:44;101887.16;;;8.38;69.02
46756;BME280;32506;52.826;-1.192;2023-01-29T11:01:12;101882.00;;;8.45;68.91
46756;BME280;32506;52.826;-1.192;2023-01-29T11:03:38;101881.00;;;8.63;68.99
46756;BME280;32506;52.826;-1.192;2023-01-29T11:06:32;101871.47;;;8.85;68.68
46756;BME280;32506;52.826;-1.192;2023-01-29T11:12:00;101856.41;;;9.56;68.19
46756;BME280;32506;52.826;-1.192;2023-01-29T11:14:31;101845.81;;;9.95;67.87
46756;BME280;32506;52.826;-1.192;2023-01-29T11:16:59;101840.81;;;10.38;67.24
46756;BME280;32506;52.826;-1.192;2023-01-29T11:19:42;101840.25;;;10.96;66.21
46756;BME280;32506;52.826;-1.192;2023-01-29T11:22:16;101845.47;;;11.49;65.73
46756;BME280;32506;52.826;-1.192;2023-01-29T11:24:44;101831.59;;;11.97;65.24
46756;BME280;32506;52.826;-1.192;2023-01-29T11:27:16;101820.47;;;12.50;64.57
46756;BME280;32506;52.826;-1.192;2023-01-29T11:29:46;101808.41;;;13.02;63.58
46756;BME280;32506;52.826;-1.192;2023-01-29T11:35:04;101794.63;;;13.61;62.73
46756;BME280;32506;52.826;-1.192;2023-01-29T11:39:57;101785.97;;;13.92;62.64
46756;BME280;32506;52.826;-1.192;2023-01-29T11:42:22;101792.38;;;14.04;62.36
46756;BME280;32506;52.826;-1.192;2023-01-29T11:44:48;101786.63;;;14.14;62.26
46756;BME280;32506;52.826;-1.192;2023-01-29T11:47:22;101772.13;;;14.22;61.86
46756;BME280;32506;52.826;-1.192;2023-01-29T11:49:57;101783.94;;;14.27;62.17
46756;BME280;32506;52.826;-1.192;2023-01-29T11:52:33;101774.63;;;14.37;62.38
46756;BME280;32506;52.826;-1.192;2023-01-29T11:55:04;101771.69;;;14.52;62.72
46756;BME280;32506;52.826;-1.192;2023-01-29T11:57:34;101774.75;;;14.69;62.41
46756;BME280;32506;52.826;-1.192;2023-01-29T12:02:37;101772.81;;;15.03;62.35
46756;BME280;32506;52.826;-1.192;2023-01-29T12:05:32;101766.25;;;15.24;61.86
46756;BME280;32506;52.826;-1.192;2023-01-29T12:07:59;101761.28;;;15.27;62.15
46756;BME280;32506;52.826;-1.192;2023-01-29T12:10:34;101753.16;;;15.34;62.24
46756;BME280;32506;52.826;-1.192;2023-01-29T12:15:41;101744.50;;;15.32;62.20
46756;BME280;32506;52.826;-1.192;2023-01-29T12:20:44;101743.13;;;15.16;62.82
46756;BME280;32506;52.826;-1.192;2023-01-29T12:23:29;101742.53;;;15.07;62.26
46756;BME280;32506;52.826;-1.192;2023-01-29T12:31:35;101726.00;;;15.36;61.13
46756;BME280;32506;52.826;-1.192;2023-01-29T12:34:24;101717.50;;;15.39;66.13
46756;BME280;32506;52.826;-1.192;2023-01-29T12:36:55;101707.50;;;15.78;65.02
46756;BME280;32506;52.826;-1.192;2023-01-29T12:39:23;101702.50;;;16.25;62.03
46756;BME280;32506;52.826;-1.192;2023-01-29T12:44:33;101704.53;;;17.04;57.61
46756;BME280;32506;52.826;-1.192;2023-01-29T12:47:05;101705.88;;;17.25;56.30
46756;BME280;32506;52.826;-1.192;2023-01-29T12:49:34;101705.91;;;17.37;55.93
46756;BME280;32506;52.826;-1.192;2023-01-29T12:52:10;101693.00;;;17.39;55.30
46756;BME280;32506;52.826;-1.192;2023-01-29T12:57:55;101690.56;;;17.07;54.06
46756;BME280;32506;52.826;-1.192;2023-01-29T13:00:24;101688.56;;;16.84;54.39
46756;BME280;32506;52.826;-1.192;2023-01-29T13:02:57;101684.00;;;16.66;54.04
46756;BME280;32506;52.826;-1.192;2023-01-29T13:05:27;101688.97;;;16.51;54.01
46756;BME280;32506;52.826;-1.192;2023-01-29T13:08:05;101677.47;;;16.37;53.67
46756;BME280;32506;52.826;-1.192;2023-01-29T13:10:36;101682.81;;;16.25;54.60
46756;BME280;32506;52.826;-1.192;2023-01-29T13:13:10;101677.09;;;16.15;54.56
46756;BME280;32506;52.826;-1.192;2023-01-29T13:15:39;101669.97;;;16.02;54.28
46756;BME280;32506;52.826;-1.192;2023-01-29T13:20:54;101670.94;;;15.89;54.13
46756;BME280;32506;52.826;-1.192;2023-01-29T13:23:23;101662.22;;;15.87;53.71
46756;BME280;32506;52.826;-1.192;2023-01-29T13:25:53;101659.19;;;15.83;53.71
46756;BME280;32506;52.826;-1.192;2023-01-29T13:28:22;101660.44;;;15.81;54.20
46756;BME280;32506;52.826;-1.192;2023-01-29T13:36:54;101626.78;;;17.06;53.11
46756;BME280;32506;52.826;-1.192;2023-01-29T13:39:31;101623.81;;;17.62;51.93
46756;BME280;32506;52.826;-1.192;2023-01-29T13:41:59;101637.47;;;18.15;51.37
46756;BME280;32506;52.826;-1.192;2023-01-29T13:44:27;101629.91;;;18.69;50.04
46756;BME280;32506;52.826;-1.192;2023-01-29T13:47:20;101626.56;;;19.25;49.11
46756;BME280;32506;52.826;-1.192;2023-01-29T13:53:02;101617.78;;;20.08;47.80
46756;BME280;32506;52.826;-1.192;2023-01-29T13:55:32;101612.28;;;20.47;47.16
46756;BME280;32506;52.826;-1.192;2023-01-29T13:58:02;101614.53;;;20.77;46.55
46756;BME280;32506;52.826;-1.192;2023-01-29T14:10:21;101585.44;;;19.84;48.99
46756;BME280;32506;52.826;-1.192;2023-01-29T14:12:49;101582.69;;;19.62;49.24
46756;BME280;32506;52.826;-1.192;2023-01-29T14:15:19;101582.22;;;19.31;49.70
46756;BME280;32506;52.826;-1.192;2023-01-29T14:18:21;101581.03;;;18.93;49.31
46756;BME280;32506;52.826;-1.192;2023-01-29T14:23:28;101560.28;;;18.24;49.67
46756;BME280;32506;52.826;-1.192;2023-01-29T14:25:55;101562.22;;;18.00;50.90
46756;BME280;32506;52.826;-1.192;2023-01-29T14:28:27;101564.47;;;17.67;50.67
46756;BME280;32506;52.826;-1.192;2023-01-29T14:30:53;101560.00;;;17.49;51.37
46756;BME280;32506;52.826;-1.192;2023-01-29T14:33:26;101550.59;;;17.40;51.86
46756;BME280;32506;52.826;-1.192;2023-01-29T14:35:55;101559.53;;;17.28;51.58
46756;BME280;32506;52.826;-1.192;2023-01-29T14:38:24;101551.91;;;17.14;51.36
46756;BME280;32506;52.826;-1.192;2023-01-29T14:41:02;101536.97;;;16.99;51.95
46756;BME280;32506;52.826;-1.192;2023-01-29T14:43:29;101526.56;;;16.84;52.26
46756;BME280;32506;52.826;-1.192;2023-01-29T14:45:54;101521.63;;;16.69;52.61
46756;BME280;32506;52.826;-1.192;2023-01-29T14:48:46;101521.56;;;16.57;52.58
46756;BME280;32506;52.826;-1.192;2023-01-29T14:51:16;101520.91;;;16.43;53.26
46756;BME280;32506;52.826;-1.192;2023-01-29T14:56:15;101510.28;;;16.18;53.32
46756;BME280;32506;52.826;-1.192;2023-01-29T14:58:44;101502.94;;;16.07;53.53
46756;BME280;32506;52.826;-1.192;2023-01-29T15:03:48;101504.03;;;15.87;54.27
46756;BME280;32506;52.826;-1.192;2023-01-29T15:06:17;101504.75;;;15.76;54.39
46756;BME280;32506;52.826;-1.192;2023-01-29T15:09:17;101496.34;;;15.66;54.33
46756;BME280;32506;52.826;-1.192;2023-01-29T15:14:36;101482.81;;;15.35;54.30
46756;BME280;32506;52.826;-1.192;2023-01-29T15:19:40;101478.69;;;15.07;54.90
46756;BME280;32506;52.826;-1.192;2023-01-29T15:22:17;101482.31;;;14.94;54.84
46756;BME280;32506;52.826;-1.192;2023-01-29T15:24:44;101482.47;;;14.81;55.03
46756;BME280;32506;52.826;-1.192;2023-01-29T15:27:14;101492.25;;;14.69;55.14
46756;BME280;32506;52.826;-1.192;2023-01-29T15:29:40;101489.63;;;14.55;55.54
46756;BME280;32506;52.826;-1.192;2023-01-29T15:32:14;101482.25;;;14.44;55.68
46756;BME280;32506;52.826;-1.192;2023-01-29T15:34:42;101486.69;;;14.32;55.66
46756;BME280;32506;52.826;-1.192;2023-01-29T15:37:30;101491.91;;;14.20;55.59